Accueil
METAR-TAF:

METAR-TAF

Aéroports :

Powell River, Colombie-Britannique, Canada

latitude: 49-50N, longitude: 124-30W, altitude: 130 m

Observation

Le bulletin a été fait il y a 39 minutes, à 20:00 UTC
Vent 12 kt de est avec des rafales jusqu'à 21 kt
Température 10°C
Humidité 82%
Pression 1003 hPa
Visibilité: 16.1 km
Nuages épars à une hauteur de 4200 ft
Nuages fragmentés à une hauteur de 5300 ft
Ciel couvert à une hauteur de 13000 ft
faibles averses de pluie

METAR: CYPW 212000Z 10012G21KT 10SM -SHRA SCT042 BKN053 OVC130 10/07 A2963 RMK SC4SC3AC1 CVCTV CLD EMBD SLP038

Heure: 12:39 (20:39 UTC)


TAF: absent

Observations et prévisions météorologiques de plus de 4000 aéroports (messages METAR et TAF).

Les stations disponibles sont représentées par des disques jaunes et rouges sur la carte.

Passer la souris dessus pour voir le nom de la station.

Cliquer dessus pour voir les observations et prévisions météorologiques.

Pour changer de carte: cliquez sur les boutons verts avec une croix noire pour zoomer, sur le bouton vert avec un tiret pour effectuer un zoom arrière, ou sur les flèches vertes pour les cartes adjacentes.


METAR-TAF: